createdAt,value
2018-08-24T00:00:48.275Z,61.19
2018-08-24T00:03:15.199Z,61.38
2018-08-24T00:05:42.097Z,61.05
2018-08-24T00:08:08.978Z,61.50
2018-08-24T00:10:35.902Z,61.73
2018-08-24T00:13:02.780Z,61.47
2018-08-24T00:15:29.674Z,61.12
2018-08-24T00:17:56.609Z,60.79
2018-08-24T00:20:23.548Z,61.42
2018-08-24T00:22:50.445Z,61.59
2018-08-24T00:25:17.341Z,61.08
2018-08-24T00:27:44.273Z,61.59
2018-08-24T00:30:11.169Z,61.03
2018-08-24T00:32:38.058Z,61.48
2018-08-24T00:35:04.958Z,60.83
2018-08-24T00:37:31.874Z,60.94
2018-08-24T00:39:58.801Z,61.10
2018-08-24T00:42:25.700Z,60.73
2018-08-24T00:44:52.602Z,61.57
2018-08-24T00:47:19.557Z,61.35
2018-08-24T00:49:46.451Z,61.65
2018-08-24T00:52:13.361Z,61.12
2018-08-24T00:54:40.264Z,61.33
2018-08-24T00:57:07.179Z,60.86
2018-08-24T00:59:34.128Z,61.26
2018-08-24T01:02:01.074Z,61.59
2018-08-24T01:04:35.282Z,61.27
2018-08-24T01:07:06.466Z,61.40
2018-08-24T01:09:33.362Z,61.22
2018-08-24T01:12:05.575Z,61.50
2018-08-24T01:14:32.497Z,61.41
2018-08-24T01:17:04.707Z,60.92
2018-08-24T01:19:31.604Z,61.28
2018-08-24T01:21:58.503Z,60.96
2018-08-24T01:24:29.912Z,61.27
2018-08-24T01:27:03.786Z,60.73
2018-08-24T01:29:30.721Z,61.42
2018-08-24T01:31:57.609Z,61.51
2018-08-24T01:34:24.532Z,61.52
2018-08-24T01:36:51.425Z,61.41
2018-08-24T01:39:18.317Z,61.41
2018-08-24T01:41:45.205Z,61.42
2018-08-24T01:44:12.108Z,61.32
2018-08-24T01:46:39.001Z,61.25
2018-08-24T01:49:05.918Z,60.57
2018-08-24T01:51:32.815Z,61.57
2018-08-24T01:53:59.702Z,60.95
2018-08-24T01:56:26.641Z,60.65
2018-08-24T01:58:53.595Z,60.65
2018-08-24T02:01:20.464Z,61.36
2018-08-24T02:03:47.365Z,61.42
2018-08-24T02:06:14.262Z,60.92
2018-08-24T02:08:41.183Z,60.90
2018-08-24T02:11:13.372Z,61.22
2018-08-24T02:13:45.531Z,60.71
2018-08-24T02:16:12.439Z,60.36
2018-08-24T02:18:44.753Z,60.60
2018-08-24T02:21:16.896Z,60.36
2018-08-24T02:23:43.816Z,60.90
2018-08-24T02:26:10.715Z,60.61
2018-08-24T02:28:37.624Z,60.82
2018-08-24T02:31:04.593Z,60.87
2018-08-24T02:33:35.725Z,60.49
2018-08-24T02:36:02.627Z,61.06
2018-08-24T02:38:29.520Z,61.10
2018-08-24T02:40:56.416Z,60.92
2018-08-24T02:43:23.331Z,60.37
2018-08-24T02:45:50.240Z,60.36
2018-08-24T02:48:17.854Z,61.14
2018-08-24T02:50:44.767Z,61.20
2018-08-24T02:53:11.661Z,61.11
2018-08-24T02:55:38.558Z,61.03
2018-08-24T02:58:05.483Z,60.74
2018-08-24T03:00:32.384Z,60.40
2018-08-24T03:02:59.285Z,60.94
2018-08-24T03:05:26.301Z,60.44
2018-08-24T03:07:53.130Z,61.29
2018-08-24T03:10:20.031Z,61.34
2018-08-24T03:12:46.973Z,61.18
2018-08-24T03:15:13.890Z,60.37
2018-08-24T03:17:46.177Z,60.94
2018-08-24T03:20:13.110Z,60.65
2018-08-24T03:22:40.020Z,60.97
2018-08-24T03:25:06.937Z,61.09
2018-08-24T03:27:33.846Z,61.11
2018-08-24T03:30:00.759Z,60.95
2018-08-24T03:32:27.673Z,60.40
2018-08-24T03:34:54.649Z,60.27
2018-08-24T03:37:21.554Z,61.15
2018-08-24T03:39:48.451Z,61.02
2018-08-24T03:42:15.411Z,60.96
2018-08-24T03:44:42.350Z,61.29
2018-08-24T03:47:09.258Z,60.39
2018-08-24T03:49:36.194Z,60.80
2018-08-24T03:52:03.085Z,60.92
2018-08-24T03:54:29.995Z,60.89
2018-08-24T03:56:58.780Z,61.14
2018-08-24T03:59:26.114Z,60.29
2018-08-24T04:01:54.199Z,60.97
2018-08-24T04:04:21.120Z,62.82
2018-08-24T04:06:48.297Z,66.47
2018-08-24T04:09:15.542Z,65.62
2018-08-24T04:11:42.474Z,65.67
2018-08-24T04:14:09.428Z,64.17
2018-08-24T04:16:41.762Z,64.73
2018-08-24T04:19:12.962Z,64.82
2018-08-24T04:21:39.871Z,65.00
2018-08-24T04:24:06.847Z,65.59
2018-08-24T04:26:33.757Z,66.05
2018-08-24T04:29:00.644Z,66.18
2018-08-24T04:31:27.561Z,66.28
2018-08-24T04:33:54.444Z,65.91
2018-08-24T04:36:21.342Z,67.83
2018-08-24T04:38:48.228Z,67.73
2018-08-24T04:41:15.132Z,69.42
2018-08-24T04:43:42.068Z,70.16
2018-08-24T04:46:08.969Z,71.46
2018-08-24T04:48:35.922Z,72.14
2018-08-24T04:51:02.845Z,73.21
2018-08-24T04:53:29.740Z,73.08
2018-08-24T04:55:56.673Z,73.27
2018-08-24T04:58:23.673Z,73.18
2018-08-24T05:00:50.543Z,73.19
2018-08-24T05:03:17.442Z,73.73
2018-08-24T05:05:44.417Z,72.71
2018-08-24T05:08:11.273Z,73.71
2018-08-24T05:10:38.167Z,74.24
2018-08-24T05:13:05.065Z,74.95
2018-08-24T05:15:32.288Z,75.04
2018-08-24T05:17:59.200Z,75.49
2018-08-24T05:20:26.292Z,75.35
2018-08-24T05:22:53.189Z,75.22
2018-08-24T05:25:20.084Z,74.71
2018-08-24T05:27:46.985Z,74.46
2018-08-24T05:30:13.876Z,74.71
2018-08-24T05:32:40.780Z,74.52
2018-08-24T05:35:07.677Z,74.92
2018-08-24T05:37:34.595Z,74.91
2018-08-24T05:40:01.544Z,74.58
2018-08-24T05:42:28.437Z,75.38
2018-08-24T05:44:55.358Z,74.83
2018-08-24T05:47:22.249Z,75.05
2018-08-24T05:49:49.153Z,74.15
2018-08-24T05:52:16.066Z,72.10
2018-08-24T05:54:42.993Z,71.78
2018-08-24T05:57:09.905Z,72.10
2018-08-24T05:59:36.810Z,71.81
2018-08-24T06:02:03.913Z,70.85
2018-08-24T06:04:30.818Z,70.28
2018-08-24T06:06:57.704Z,71.01
2018-08-24T06:09:24.599Z,70.66
2018-08-24T06:11:51.557Z,70.54
2018-08-24T06:14:18.457Z,70.69
2018-08-24T06:16:51.567Z,69.81
2018-08-24T06:19:18.530Z,69.73
2018-08-24T06:21:45.435Z,69.62
2018-08-24T06:24:12.329Z,70.35
2018-08-24T06:26:39.215Z,69.83
2018-08-24T06:29:06.123Z,68.26
2018-08-24T06:31:33.021Z,67.29
2018-08-24T06:33:59.908Z,67.58
2018-08-24T06:36:26.817Z,66.43
2018-08-24T06:38:53.745Z,66.44
2018-08-24T06:41:20.656Z,65.80
2018-08-24T06:43:47.552Z,66.29
2018-08-24T06:46:14.452Z,66.09
2018-08-24T06:48:41.372Z,66.07
2018-08-24T06:51:08.261Z,65.36
2018-08-24T06:53:35.445Z,65.14
2018-08-24T06:56:02.180Z,65.44
2018-08-24T06:58:29.091Z,65.37
2018-08-24T07:00:56.004Z,64.77
2018-08-24T07:03:22.893Z,65.59
2018-08-24T07:05:49.822Z,64.82
2018-08-24T07:08:16.717Z,64.70
2018-08-24T07:10:43.630Z,64.62
2018-08-24T07:13:10.562Z,65.36
2018-08-24T07:15:37.481Z,64.82
2018-08-24T07:18:04.404Z,64.69
2018-08-24T07:20:32.170Z,64.76
2018-08-24T07:22:59.114Z,65.46
2018-08-24T07:25:26.026Z,65.07
2018-08-24T07:27:53.033Z,64.91
2018-08-24T07:30:19.985Z,65.02
2018-08-24T07:32:46.890Z,65.43
2018-08-24T07:35:14.006Z,64.69
2018-08-24T07:37:40.909Z,64.72
2018-08-24T07:40:08.055Z,64.78
2018-08-24T07:42:35.013Z,65.29
2018-08-24T07:45:07.771Z,65.28
2018-08-24T07:47:34.838Z,65.52
2018-08-24T07:50:01.732Z,64.98
2018-08-24T07:52:28.665Z,65.35
2018-08-24T07:54:55.548Z,64.70
2018-08-24T07:57:22.433Z,65.26
2018-08-24T07:59:49.344Z,64.80
2018-08-24T08:02:16.247Z,65.31
2018-08-24T08:04:43.177Z,64.68
2018-08-24T08:07:10.089Z,64.63
2018-08-24T08:09:37.075Z,64.84
2018-08-24T08:12:04.000Z,65.09
2018-08-24T08:14:31.264Z,64.49
2018-08-24T08:16:58.190Z,64.55
2018-08-24T08:19:25.119Z,64.33
2018-08-24T08:21:52.010Z,64.49
2018-08-24T08:24:18.961Z,64.52
2018-08-24T08:26:45.870Z,64.40
2018-08-24T08:29:16.982Z,64.60
2018-08-24T08:31:43.903Z,65.33
2018-08-24T08:34:10.837Z,64.55
2018-08-24T08:36:37.764Z,64.78
2018-08-24T08:39:05.078Z,64.31
2018-08-24T08:41:31.982Z,64.58
2018-08-24T08:43:58.918Z,64.80
2018-08-24T08:46:25.869Z,64.32
2018-08-24T08:48:52.760Z,64.99
2018-08-24T08:51:19.665Z,64.54
2018-08-24T08:53:46.677Z,64.69
2018-08-24T08:56:13.758Z,65.12
2018-08-24T08:58:40.666Z,64.99
2018-08-24T09:01:07.585Z,64.83
2018-08-24T09:03:34.542Z,64.01
2018-08-24T09:06:01.507Z,64.85
2018-08-24T09:08:28.442Z,64.37
2018-08-24T09:10:55.353Z,64.83
2018-08-24T09:13:22.290Z,65.13
2018-08-24T09:15:49.213Z,64.19
2018-08-24T09:18:21.575Z,64.41
2018-08-24T09:20:53.822Z,64.58
2018-08-24T09:23:25.981Z,64.58
2018-08-24T09:25:58.207Z,64.62
2018-08-24T09:28:37.255Z,64.64
2018-08-24T09:31:06.797Z,64.62
2018-08-24T09:33:33.706Z,64.16
2018-08-24T09:36:04.805Z,64.63
2018-08-24T09:38:31.706Z,64.34
2018-08-24T09:40:59.026Z,64.32
2018-08-24T09:43:31.342Z,64.22
2018-08-24T09:45:58.597Z,64.04
2018-08-24T09:48:31.077Z,64.61
2018-08-24T09:51:03.370Z,64.65
2018-08-24T09:53:35.568Z,64.79
2018-08-24T09:56:02.475Z,64.82
2018-08-24T09:58:29.633Z,64.62
2018-08-24T10:01:01.807Z,64.13
2018-08-24T10:03:34.062Z,64.27
2018-08-24T10:06:06.406Z,64.68
2018-08-24T10:08:38.682Z,64.04
2018-08-24T10:11:05.622Z,64.26
2018-08-24T10:13:32.526Z,63.83
2018-08-24T10:15:59.421Z,64.07
2018-08-24T10:18:26.327Z,64.58
2018-08-24T10:20:53.264Z,64.16
2018-08-24T10:23:20.158Z,64.57
2018-08-24T10:25:47.057Z,64.75
2018-08-24T10:28:13.986Z,64.69
2018-08-24T10:30:40.878Z,63.89
2018-08-24T10:33:07.811Z,63.98
2018-08-24T10:35:34.745Z,64.51
2018-08-24T10:38:01.635Z,64.01
2018-08-24T10:40:28.546Z,63.52
2018-08-24T10:42:55.446Z,63.66
2018-08-24T10:45:22.347Z,63.56
2018-08-24T10:47:49.287Z,64.16
2018-08-24T10:50:16.183Z,63.73
2018-08-24T10:52:43.097Z,63.58
2018-08-24T10:55:10.031Z,64.08
2018-08-24T10:57:36.938Z,64.01
2018-08-24T11:00:03.856Z,63.79
2018-08-24T11:02:30.957Z,63.25
2018-08-24T11:04:57.901Z,63.38
2018-08-24T11:07:24.895Z,64.12
2018-08-24T11:09:51.738Z,63.51
2018-08-24T11:12:18.658Z,64.05
2018-08-24T11:14:45.555Z,63.81
2018-08-24T11:17:12.463Z,63.20
2018-08-24T11:19:39.352Z,63.46
2018-08-24T11:22:06.258Z,63.52
2018-08-24T11:24:33.166Z,63.91
2018-08-24T11:27:00.162Z,63.10
2018-08-24T11:29:27.145Z,63.14
2018-08-24T11:31:53.975Z,63.35
2018-08-24T11:34:20.864Z,63.42
2018-08-24T11:36:47.757Z,63.49
2018-08-24T11:39:14.651Z,63.26
2018-08-24T11:41:41.584Z,62.96
2018-08-24T11:44:08.467Z,62.73
2018-08-24T11:46:35.370Z,62.64
2018-08-24T11:49:02.252Z,63.29
2018-08-24T11:51:29.140Z,63.14
2018-08-24T11:53:56.037Z,62.72
2018-08-24T11:56:22.937Z,62.94
2018-08-24T11:58:49.876Z,63.40
2018-08-24T12:01:16.797Z,62.63
2018-08-24T12:03:43.680Z,63.17
2018-08-24T12:06:10.597Z,62.96
2018-08-24T12:08:37.527Z,62.76
2018-08-24T12:11:04.445Z,63.11
2018-08-24T12:13:31.345Z,62.75
2018-08-24T12:15:58.252Z,62.90
2018-08-24T12:18:25.245Z,62.74
2018-08-24T12:20:52.144Z,62.67
2018-08-24T12:23:19.089Z,62.51
2018-08-24T12:25:45.986Z,62.43
2018-08-24T12:28:12.884Z,62.57
2018-08-24T12:30:39.786Z,62.62
2018-08-24T12:33:06.748Z,62.04
2018-08-24T12:35:33.632Z,62.75
2018-08-24T12:38:00.537Z,62.62
2018-08-24T12:40:27.515Z,61.97
2018-08-24T12:42:54.392Z,62.69
2018-08-24T12:45:21.279Z,62.16
2018-08-24T12:47:48.182Z,62.76
2018-08-24T12:50:15.089Z,62.62
2018-08-24T12:52:41.994Z,62.31
2018-08-24T12:55:08.906Z,62.66
2018-08-24T12:57:35.798Z,62.93
2018-08-24T13:00:02.771Z,62.20
2018-08-24T13:02:29.641Z,62.29
2018-08-24T13:04:56.745Z,63.09
2018-08-24T13:07:23.632Z,62.88
2018-08-24T13:09:50.543Z,62.41
2018-08-24T13:12:17.678Z,62.78
2018-08-24T13:14:44.568Z,62.58
2018-08-24T13:17:11.452Z,62.77
2018-08-24T13:19:38.351Z,62.36
2018-08-24T13:22:05.267Z,63.00
2018-08-24T13:24:32.165Z,62.81
2018-08-24T13:26:59.048Z,62.69
2018-08-24T13:29:25.949Z,63.09
2018-08-24T13:31:52.850Z,62.45
2018-08-24T13:34:19.773Z,62.49
2018-08-24T13:36:46.660Z,62.89
2018-08-24T13:39:13.578Z,62.13
2018-08-24T13:41:40.481Z,62.99
2018-08-24T13:44:07.387Z,62.62
2018-08-24T13:46:34.310Z,62.50
2018-08-24T13:49:01.277Z,62.82
2018-08-24T13:51:28.169Z,62.62
2018-08-24T13:53:55.093Z,62.39
2018-08-24T13:56:21.996Z,62.52
2018-08-24T13:58:48.889Z,62.86
2018-08-24T14:01:15.847Z,62.49
2018-08-24T14:03:42.781Z,62.58
2018-08-24T14:06:09.697Z,62.31
2018-08-24T14:08:36.628Z,61.98
2018-08-24T14:11:03.517Z,62.18
2018-08-24T14:13:30.498Z,62.38
2018-08-24T14:15:57.405Z,61.99
2018-08-24T14:18:24.311Z,61.77
2018-08-24T14:20:51.241Z,61.84
2018-08-24T14:23:18.157Z,62.61
2018-08-24T14:25:45.052Z,62.38
2018-08-24T14:28:11.964Z,62.55
2018-08-24T14:30:38.855Z,62.35
2018-08-24T14:33:05.748Z,62.09
2018-08-24T14:35:32.656Z,61.66
2018-08-24T14:37:59.545Z,62.54
2018-08-24T14:40:26.555Z,62.44
2018-08-24T14:42:53.449Z,62.06
2018-08-24T14:45:20.345Z,62.16
2018-08-24T14:47:47.237Z,62.68
2018-08-24T14:50:14.157Z,62.34
2018-08-24T14:52:41.063Z,62.19
2018-08-24T14:55:07.993Z,62.14
2018-08-24T14:57:34.956Z,62.13
2018-08-24T15:00:01.821Z,62.58
2018-08-24T15:02:28.709Z,62.71
2018-08-24T15:04:55.605Z,62.58
2018-08-24T15:07:22.497Z,62.45
2018-08-24T15:09:49.396Z,62.15
2018-08-24T15:12:16.313Z,61.94
2018-08-24T15:14:43.217Z,62.35
2018-08-24T15:17:10.153Z,62.31
2018-08-24T15:19:37.041Z,62.57
2018-08-24T15:22:04.008Z,61.85
2018-08-24T15:24:30.958Z,62.46
2018-08-24T15:26:57.853Z,61.76
2018-08-24T15:29:24.857Z,61.82
2018-08-24T15:31:51.712Z,61.97
2018-08-24T15:34:18.613Z,62.42
2018-08-24T15:36:45.543Z,61.66
2018-08-24T15:39:13.501Z,62.27
2018-08-24T15:41:41.025Z,62.05
2018-08-24T15:46:53.263Z,61.87
2018-08-24T15:49:20.233Z,61.73
2018-08-24T15:51:47.146Z,61.59
2018-08-24T15:54:14.037Z,61.76
2018-08-24T15:56:41.010Z,62.35
2018-08-24T15:59:07.915Z,62.39
2018-08-24T16:01:34.813Z,62.01
2018-08-24T16:04:01.709Z,62.38
2018-08-24T16:06:28.638Z,61.64
2018-08-24T16:08:55.540Z,62.13
2018-08-24T16:11:22.445Z,61.72
2018-08-24T16:13:49.341Z,62.33
2018-08-24T16:16:16.252Z,62.01
2018-08-24T16:18:43.184Z,61.60
2018-08-24T16:21:10.087Z,62.37
2018-08-24T16:23:37.030Z,62.45
2018-08-24T16:26:03.940Z,61.97
2018-08-24T16:28:30.858Z,62.40
2018-08-24T16:30:57.766Z,61.72
2018-08-24T16:33:24.677Z,62.57
2018-08-24T16:35:51.569Z,62.56
2018-08-24T16:38:18.467Z,62.18
2018-08-24T16:40:45.396Z,62.10
2018-08-24T16:43:12.432Z,62.36
2018-08-24T16:45:39.351Z,62.49
2018-08-24T16:48:06.298Z,62.05
2018-08-24T16:50:33.199Z,62.37
2018-08-24T16:53:00.104Z,61.77
2018-08-24T16:55:27.006Z,61.61
2018-08-24T16:57:54.516Z,62.38
2018-08-24T17:00:21.422Z,61.58
2018-08-24T17:02:48.317Z,62.29
2018-08-24T17:05:15.201Z,62.40
2018-08-24T17:07:42.097Z,61.77
2018-08-24T17:10:09.493Z,61.70
2018-08-24T17:12:36.444Z,61.62
2018-08-24T17:15:03.332Z,61.90
2018-08-24T17:17:30.238Z,62.32
2018-08-24T17:19:57.186Z,62.32
2018-08-24T17:22:24.099Z,62.44
2018-08-24T17:24:51.024Z,62.16
2018-08-24T17:27:17.923Z,62.36
2018-08-24T17:29:44.817Z,61.85
2018-08-24T17:32:11.715Z,61.65
2018-08-24T17:34:38.638Z,62.18
2018-08-24T17:37:05.573Z,61.62
2018-08-24T17:39:32.473Z,62.27
2018-08-24T17:41:59.396Z,61.85
2018-08-24T17:44:26.308Z,61.95
2018-08-24T17:46:53.196Z,62.35
2018-08-24T17:49:20.098Z,61.74
2018-08-24T17:51:47.037Z,61.86
2018-08-24T17:54:13.990Z,62.33
2018-08-24T17:56:40.866Z,61.54
2018-08-24T17:59:07.757Z,62.35
2018-08-24T18:01:34.660Z,61.86
2018-08-24T18:04:01.552Z,62.42
2018-08-24T18:06:28.445Z,62.30
2018-08-24T18:08:55.336Z,61.67
2018-08-24T18:11:22.237Z,61.78
2018-08-24T18:13:49.129Z,62.19
2018-08-24T18:16:16.046Z,61.83
2018-08-24T18:18:42.951Z,61.82
2018-08-24T18:21:10.188Z,62.27
2018-08-24T18:23:37.093Z,62.57
2018-08-24T18:26:03.985Z,62.47
2018-08-24T18:28:30.973Z,62.26
2018-08-24T18:30:57.882Z,62.07
2018-08-24T18:33:24.772Z,61.87
2018-08-24T18:35:51.692Z,62.23
2018-08-24T18:38:18.596Z,62.14
2018-08-24T18:40:45.497Z,62.24
2018-08-24T18:43:12.388Z,62.14
2018-08-24T18:45:39.288Z,62.40
2018-08-24T18:48:06.189Z,62.38
2018-08-24T18:50:33.142Z,61.67
2018-08-24T18:53:00.045Z,61.61
2018-08-24T18:55:26.935Z,62.47
2018-08-24T18:57:53.939Z,61.81
2018-08-24T19:00:20.790Z,62.03
2018-08-24T19:02:47.716Z,62.40
2018-08-24T19:05:14.641Z,62.30
2018-08-24T19:07:41.574Z,62.10
2018-08-24T19:10:08.460Z,61.88
2018-08-24T19:12:35.357Z,62.47
2018-08-24T19:15:02.250Z,62.13
2018-08-24T19:17:34.552Z,61.70
2018-08-24T19:20:06.691Z,62.42
2018-08-24T19:22:33.574Z,62.15
2018-08-24T19:25:00.476Z,62.21
2018-08-24T19:27:32.702Z,62.22
2018-08-24T19:30:04.897Z,61.71
2018-08-24T19:32:31.819Z,61.83
2018-08-24T19:34:58.741Z,61.67
2018-08-24T19:37:25.677Z,62.38
2018-08-24T19:39:57.930Z,61.68
2018-08-24T19:42:26.050Z,62.19
2018-08-24T19:44:53.269Z,61.82
2018-08-24T19:47:25.481Z,61.96
2018-08-24T19:49:52.373Z,62.23
2018-08-24T19:52:19.270Z,62.44
2018-08-24T19:54:46.175Z,61.43
2018-08-24T19:57:18.414Z,62.25
2018-08-24T19:59:45.345Z,62.34
2018-08-24T20:02:12.256Z,61.50
2018-08-24T20:04:39.156Z,61.76
2018-08-24T20:07:11.352Z,62.25
2018-08-24T20:09:43.554Z,61.45
2018-08-24T20:12:10.440Z,61.77
2018-08-24T20:14:42.798Z,61.91
2018-08-24T20:17:15.069Z,61.73
2018-08-24T20:19:41.967Z,61.47
2018-08-24T20:22:08.911Z,61.76
2018-08-24T20:24:36.055Z,61.45
2018-08-24T20:27:02.854Z,61.79
2018-08-24T20:29:29.766Z,61.71
2018-08-24T20:31:56.666Z,61.66
2018-08-24T20:34:23.560Z,62.23
2018-08-24T20:36:50.484Z,62.23
2018-08-24T20:39:17.389Z,62.18
2018-08-24T20:41:44.286Z,61.86
2018-08-24T20:44:11.192Z,62.15
2018-08-24T20:46:38.118Z,61.88
2018-08-24T20:49:05.067Z,62.21
2018-08-24T20:51:32.008Z,62.08
2018-08-24T20:53:58.912Z,62.05
2018-08-24T20:56:25.820Z,61.22
2018-08-24T20:58:52.758Z,61.43
2018-08-24T21:01:19.914Z,61.84
2018-08-24T21:03:46.822Z,62.02
2018-08-24T21:06:13.734Z,62.16
2018-08-24T21:08:40.621Z,61.91
2018-08-24T21:11:07.523Z,62.11
2018-08-24T21:13:34.452Z,61.73
2018-08-24T21:16:01.373Z,61.38
2018-08-24T21:18:28.314Z,61.58
2018-08-24T21:20:55.290Z,61.96
2018-08-24T21:23:22.195Z,61.60
2018-08-24T21:25:49.124Z,61.97
2018-08-24T21:28:16.053Z,61.27
2018-08-24T21:30:42.948Z,61.05
2018-08-24T21:33:09.856Z,61.08
2018-08-24T21:35:36.749Z,61.89
2018-08-24T21:38:03.668Z,61.78
2018-08-24T21:40:30.580Z,62.21
2018-08-24T21:42:57.497Z,61.49
2018-08-24T21:45:24.417Z,61.41
2018-08-24T21:47:51.306Z,61.03
2018-08-24T21:50:18.217Z,61.74
2018-08-24T21:52:45.139Z,61.95
2018-08-24T21:55:12.045Z,61.11
2018-08-24T21:57:38.982Z,61.76
2018-08-24T22:00:05.926Z,61.91
2018-08-24T22:02:32.849Z,61.55
2018-08-24T22:04:59.789Z,62.00
2018-08-24T22:07:26.697Z,61.51
2018-08-24T22:09:53.597Z,61.31
2018-08-24T22:12:20.510Z,61.97
2018-08-24T22:14:47.460Z,62.03
2018-08-24T22:17:14.361Z,61.39
2018-08-24T22:19:41.263Z,61.88
2018-08-24T22:22:08.188Z,61.35
2018-08-24T22:24:35.123Z,61.69
2018-08-24T22:27:02.044Z,62.21
2018-08-24T22:29:28.937Z,61.38
2018-08-24T22:31:55.858Z,61.14
2018-08-24T22:34:22.753Z,61.68
2018-08-24T22:36:49.697Z,61.71
2018-08-24T22:39:16.607Z,61.75
2018-08-24T22:41:43.509Z,61.54
2018-08-24T22:44:10.396Z,61.38
2018-08-24T22:46:37.307Z,61.38
2018-08-24T22:49:04.217Z,61.70
2018-08-24T22:51:31.134Z,61.71
2018-08-24T22:53:58.029Z,61.37
2018-08-24T22:56:24.935Z,61.99
2018-08-24T22:58:51.829Z,61.35
2018-08-24T23:01:18.725Z,61.47
2018-08-24T23:03:45.613Z,61.47
2018-08-24T23:06:12.517Z,61.85
2018-08-24T23:08:39.450Z,61.42
2018-08-24T23:11:06.350Z,61.35
2018-08-24T23:13:33.282Z,61.87
2018-08-24T23:16:00.188Z,60.85
2018-08-24T23:18:27.100Z,61.75
2018-08-24T23:20:54.001Z,61.73
2018-08-24T23:23:20.926Z,61.19
2018-08-24T23:25:47.829Z,61.93
2018-08-24T23:28:14.712Z,62.07
2018-08-24T23:30:41.619Z,61.75
2018-08-24T23:33:08.504Z,61.32
2018-08-24T23:35:35.445Z,61.03
2018-08-24T23:38:02.358Z,61.12
2018-08-24T23:40:29.251Z,62.02
2018-08-24T23:42:56.149Z,61.71
2018-08-24T23:45:23.045Z,61.92
2018-08-24T23:47:49.961Z,62.07
2018-08-24T23:50:16.877Z,61.85
2018-08-24T23:52:43.794Z,61.43
2018-08-24T23:55:10.680Z,61.99
2018-08-24T23:57:37.592Z,61.09
